Time;durP1;ratioP1;P1;durP2;ratioP2;P2;SDS_P1;SDS_P2;PMS_P1;PMS_P2;Temp;Humidity;BMP_temperature;BMP_pressure;BME280_temperature;BME280_humidity;BME280_pressure;Samples;Min_cycle;Max_cycle;Signal;HPM_P1;HPM_P2
2023/05/23 00:04:04;;;;;;;8.18;6.30;;;;;;;;;;12827353;23;20024;-85
2023/05/23 00:09:07;;;;;;;7.68;5.88;;;;;;;;;;12852353;23;20020;-86
2023/05/23 00:14:13;;;;;;;9.07;6.70;;;;;;;;;;12853313;23;20047;-85
2023/05/23 00:19:17;;;;;;;;;;;;;;;;;;12843925;23;20028;-85
2023/05/23 00:24:20;;;;;;;10.75;7.20;;;;;;;;;;12851867;23;19923;-85
2023/05/23 00:29:25;;;;;;;16.05;12.18;;;;;;;;;;12850250;23;20036;-85
2023/05/23 00:34:28;;;;;;;11.30;8.70;;;;;;;;;;12849515;23;20024;-85
2023/05/23 00:39:33;;;;;;;13.48;9.32;;;;;;;;;;12827217;23;20035;-85
2023/05/23 00:44:37;;;;;;;10.45;7.55;;;;;;;;;;12844663;23;20330;-86
2023/05/23 00:49:41;;;;;;;11.13;7.50;;;;;;;;;;12815852;23;20083;-87
2023/05/23 00:54:44;;;;;;;9.43;6.38;;;;;;;;;;12815509;23;20078;-86
2023/05/23 00:59:50;;;;;;;9.80;7.10;;;;;;;;;;12842571;23;20450;-86
2023/05/23 01:04:53;;;;;;;11.73;8.80;;;;;;;;;;12816498;23;20021;-85
2023/05/23 01:09:57;;;;;;;8.38;6.43;;;;;;;;;;12851571;23;20048;-86
2023/05/23 01:15:07;;;;;;;8.23;5.80;;;;;;;;;;12847378;23;20025;-85
2023/05/23 01:20:15;;;;;;;6.88;5.22;;;;;;;;;;12847138;23;20032;-86
2023/05/23 01:25:37;;;;;;;9.32;5.97;;;;;;;;;;12818668;23;20025;-85
2023/05/23 01:30:44;;;;;;;8.05;5.90;;;;;;;;;;12787374;23;20025;-85
2023/05/23 01:35:48;;;;;;;8.25;5.60;;;;;;;;;;12851718;23;20327;-85
2023/05/23 01:40:51;;;;;;;11.70;8.75;;;;;;;;;;12849653;23;20012;-86
2023/05/23 01:45:57;;;;;;;12.57;8.10;;;;;;;;;;12821344;23;20036;-85
2023/05/23 01:51:02;;;;;;;8.18;5.30;;;;;;;;;;12823409;23;20504;-85
2023/05/23 01:56:06;;;;;;;8.77;5.63;;;;;;;;;;12824149;23;20021;-85
2023/05/23 02:01:11;;;;;;;9.43;6.65;;;;;;;;;;12821119;23;20028;-86
2023/05/23 02:06:15;;;;;;;5.97;4.72;;;;;;;;;;12842570;23;20101;-86
2023/05/23 02:11:18;;;;;;;6.57;4.57;;;;;;;;;;12843937;23;20352;-87
2023/05/23 02:16:24;;;;;;;7.43;4.78;;;;;;;;;;12816815;23;20024;-86
2023/05/23 02:21:28;;;;;;;5.90;4.57;;;;;;;;;;12818875;23;20325;-86
2023/05/23 02:26:32;;;;;;;10.07;7.43;;;;;;;;;;12822462;23;20024;-86
2023/05/23 02:31:37;;;;;;;8.77;5.68;;;;;;;;;;12860966;23;20044;-85
2023/05/23 02:36:40;;;;;;;11.20;8.57;;;;;;;;;;12819195;23;20353;-85
2023/05/23 02:41:43;;;;;;;9.02;7.05;;;;;;;;;;12840617;23;20067;-86
2023/05/23 02:46:48;;;;;;;9.68;6.95;;;;;;;;;;12860219;23;20073;-86
2023/05/23 02:51:53;;;;;;;9.98;8.02;;;;;;;;;;12839654;23;20043;-86
2023/05/23 02:56:58;;;;;;;11.00;8.43;;;;;;;;;;12841529;23;20032;-85
2023/05/23 03:02:02;;;;;;;10.63;8.52;;;;;;;;;;12815200;23;20020;-86
2023/05/23 03:07:06;;;;;;;14.55;9.73;;;;;;;;;;12813013;23;20027;-85
2023/05/23 03:12:13;;;;;;;13.40;9.68;;;;;;;;;;12808877;23;20029;-86
2023/05/23 03:17:18;;;;;;;9.50;7.72;;;;;;;;;;12840191;23;20341;-87
2023/05/23 03:22:22;;;;;;;13.63;11.43;;;;;;;;;;12813991;23;20013;-85
2023/05/23 03:27:25;;;;;;;11.15;9.07;;;;;;;;;;12814995;23;20107;-86
2023/05/23 03:32:30;;;;;;;5.90;4.57;;;;;;;;;;12815164;23;20024;-86
2023/05/23 03:37:34;;;;;;;4.28;3.63;;;;;;;;;;12815713;23;20032;-86
2023/05/23 03:42:39;;;;;;;5.75;4.57;;;;;;;;;;12813849;23;20404;-85
2023/05/23 03:47:45;;;;;;;7.28;5.10;;;;;;;;;;12837878;23;20021;-87
2023/05/23 03:52:49;;;;;;;3.95;3.28;;;;;;;;;;12811867;23;20019;-86
2023/05/23 03:57:53;;;;;;;4.13;3.72;;;;;;;;;;12813281;23;20560;-87
2023/05/23 04:02:58;;;;;;;4.90;4.40;;;;;;;;;;12812925;23;20024;-87
2023/05/23 04:08:01;;;;;;;5.07;3.88;;;;;;;;;;12814770;23;20040;-86
2023/05/23 04:13:06;;;;;;;4.82;3.90;;;;;;;;;;12813323;23;20025;-85
2023/05/23 04:18:11;;;;;;;5.32;4.38;;;;;;;;;;12814964;23;20029;-86
2023/05/23 04:23:14;;;;;;;4.57;4.10;;;;;;;;;;12819290;23;20108;-85
2023/05/23 04:28:21;;;;;;;6.10;4.30;;;;;;;;;;12818671;23;20055;-87
2023/05/23 04:33:27;;;;;;;6.45;5.75;;;;;;;;;;12815031;23;20492;-86
2023/05/23 04:38:30;;;;;;;4.43;3.83;;;;;;;;;;12841145;23;20524;-87
2023/05/23 04:43:36;;;;;;;8.55;7.47;;;;;;;;;;12815822;23;20020;-87
2023/05/23 04:48:52;;;;;;;5.27;4.17;;;;;;;;;;12839977;23;20021;-87
2023/05/23 04:53:56;;;;;;;3.90;2.80;;;;;;;;;;12820335;23;20023;-87
2023/05/23 04:59:02;;;;;;;3.78;3.13;;;;;;;;;;12815694;23;20112;-87
2023/05/23 05:04:07;;;;;;;3.33;3.03;;;;;;;;;;12811979;23;20070;-86
2023/05/23 05:09:11;;;;;;;2.92;2.50;;;;;;;;;;12850186;23;20465;-84
2023/05/23 05:14:16;;;;;;;3.10;2.80;;;;;;;;;;12818644;23;20367;-85
2023/05/23 05:19:21;;;;;;;2.25;1.85;;;;;;;;;;12816965;23;20028;-84
2023/05/23 05:24:26;;;;;;;2.33;2.13;;;;;;;;;;12816162;23;20021;-84
2023/05/23 05:29:30;;;;;;;4.28;2.97;;;;;;;;;;12818037;23;20029;-84
2023/05/23 05:34:36;;;;;;;2.47;2.28;;;;;;;;;;12818915;23;20040;-84
2023/05/23 05:39:40;;;;;;;2.63;2.13;;;;;;;;;;12843782;23;20028;-85
2023/05/23 05:44:43;;;;;;;3.03;2.00;;;;;;;;;;12840634;23;20517;-84
2023/05/23 05:49:49;;;;;;;3.35;3.05;;;;;;;;;;12815252;23;20476;-84
2023/05/23 05:54:52;;;;;;;3.00;2.30;;;;;;;;;;12839656;23;20027;-84
2023/05/23 05:59:56;;;;;;;2.45;1.45;;;;;;;;;;12813635;23;20032;-85
2023/05/23 06:05:03;;;;;;;2.67;1.63;;;;;;;;;;12840062;23;20036;-85
2023/05/23 06:10:08;;;;;;;1.63;1.20;;;;;;;;;;12815230;23;20025;-85
2023/05/23 06:15:13;;;;;;;1.60;1.40;;;;;;;;;;12816080;23;20079;-85
2023/05/23 06:20:18;;;;;;;3.20;1.75;;;;;;;;;;12840904;23;20044;-86
2023/05/23 06:25:22;;;;;;;2.45;2.25;;;;;;;;;;12817509;23;20425;-86
2023/05/23 06:30:28;;;;;;;4.40;2.70;;;;;;;;;;12840465;23;20105;-86
2023/05/23 06:35:32;;;;;;;2.22;2.03;;;;;;;;;;12814776;23;20079;-86
2023/05/23 06:40:36;;;;;;;3.10;1.98;;;;;;;;;;12778215;23;20024;-86
2023/05/23 06:45:40;;;;;;;1.75;1.45;;;;;;;;;;12754835;23;20352;-85
2023/05/23 06:50:49;;;;;;;2.50;1.80;;;;;;;;;;12753737;23;20028;-86
2023/05/23 06:55:54;;;;;;;1.92;1.63;;;;;;;;;;12753929;23;20685;-85
2023/05/23 07:00:59;;;;;;;1.65;1.45;;;;;;;;;;12753345;23;20025;-86
2023/05/23 07:06:16;;;;;;;1.75;1.27;;;;;;;;;;12778321;23;20053;-85
2023/05/23 07:11:21;;;;;;;2.47;2.03;;;;;;;;;;12776366;23;20025;-86
2023/05/23 07:16:29;;;;;;;3.13;2.47;;;;;;;;;;12754480;23;20047;-86
2023/05/23 07:21:40;;;;;;;2.33;1.92;;;;;;;;;;12751774;23;20031;-85
2023/05/23 07:26:44;;;;;;;3.38;3.08;;;;;;;;;;12776919;23;20025;-86
2023/05/23 07:31:47;;;;;;;4.65;3.08;;;;;;;;;;12748555;23;20087;-86
2023/05/23 07:36:52;;;;;;;2.60;2.40;;;;;;;;;;12752876;23;20080;-86
2023/05/23 07:41:56;;;;;;;;;;;;;;;;;;12750683;23;20028;-86
2023/05/23 07:47:00;;;;;;;2.67;2.40;;;;;;;;;;12775802;23;19983;-85
2023/05/23 07:52:06;;;;;;;3.30;3.00;;;;;;;;;;12751558;23;20079;-85
2023/05/23 07:57:10;;;;;;;4.50;3.38;;;;;;;;;;12753550;23;20025;-86
2023/05/23 08:02:14;;;;;;;3.20;2.20;;;;;;;;;;12750061;23;20021;-85
2023/05/23 08:07:20;;;;;;;3.22;1.85;;;;;;;;;;12751833;23;20045;-86
2023/05/23 08:12:32;;;;;;;6.00;2.80;;;;;;;;;;12777415;23;20476;-85
2023/05/23 08:17:43;;;;;;;3.47;2.78;;;;;;;;;;12777541;23;20029;-87
2023/05/23 08:22:48;;;;;;;2.28;2.05;;;;;;;;;;12752163;23;20472;-86
2023/05/23 08:27:52;;;;;;;5.45;3.85;;;;;;;;;;12776627;23;20075;-86
2023/05/23 08:33:10;;;;;;;3.42;3.13;;;;;;;;;;12752241;23;20051;-86
2023/05/23 08:38:16;;;;;;;4.13;2.70;;;;;;;;;;12751815;23;20025;-86
2023/05/23 08:43:32;;;;;;;3.67;3.28;;;;;;;;;;12780221;23;20036;-86
2023/05/23 08:48:39;;;;;;;4.95;4.10;;;;;;;;;;12757527;23;20075;-86
2023/05/23 08:53:47;;;;;;;4.38;3.60;;;;;;;;;;12756186;23;20029;-85
2023/05/23 08:58:53;;;;;;;3.30;2.95;;;;;;;;;;12816971;23;20052;-86
2023/05/23 09:04:01;;;;;;;5.72;4.30;;;;;;;;;;12842986;23;20024;-86
2023/05/23 09:09:13;;;;;;;6.10;4.97;;;;;;;;;;12844090;23;20029;-86
2023/05/23 09:14:17;;;;;;;7.03;5.40;;;;;;;;;;12842037;23;20207;-86
2023/05/23 09:19:21;;;;;;;6.25;3.80;;;;;;;;;;12841620;23;20520;-86
2023/05/23 09:24:36;;;;;;;7.28;3.90;;;;;;;;;;12842576;23;20029;-86
2023/05/23 09:29:46;;;;;;;6.65;4.07;;;;;;;;;;12817439;23;20502;-85
2023/05/23 09:34:56;;;;;;;5.18;4.10;;;;;;;;;;12816350;23;20511;-86
2023/05/23 09:40:06;;;;;;;5.32;4.03;;;;;;;;;;12816888;23;20104;-86
2023/05/23 09:45:10;;;;;;;6.35;3.83;;;;;;;;;;12841968;23;20099;-86
2023/05/23 09:50:14;;;;;;;6.35;5.05;;;;;;;;;;12844053;23;20093;-86
2023/05/23 09:55:19;;;;;;;6.35;5.30;;;;;;;;;;12843928;23;20020;-85
2023/05/23 10:00:23;;;;;;;5.25;4.07;;;;;;;;;;12817470;23;20028;-85
2023/05/23 10:05:38;;;;;;;6.93;4.55;;;;;;;;;;12816766;23;20684;-84
2023/05/23 10:11:32;;;;;;;5.43;4.93;;;;;;;;;;12814748;23;20660;-85
2023/05/23 10:16:49;;;;;;;6.72;4.82;;;;;;;;;;12816380;23;20035;-85
2023/05/23 10:21:58;;;;;;;6.18;5.47;;;;;;;;;;12857862;23;20726;-84
2023/05/23 10:27:03;;;;;;;9.85;8.00;;;;;;;;;;12840981;23;20075;-86
2023/05/23 10:32:08;;;;;;;6.18;4.88;;;;;;;;;;12815716;23;20032;-85
2023/05/23 10:37:19;;;;;;;7.78;6.38;;;;;;;;;;12841028;23;20048;-87
2023/05/23 10:42:33;;;;;;;11.50;9.93;;;;;;;;;;12838624;23;20059;-85
2023/05/23 10:47:38;;;;;;;6.47;5.75;;;;;;;;;;12815390;23;20021;-86
2023/05/23 10:52:43;;;;;;;6.33;5.00;;;;;;;;;;12814968;23;20050;-86
2023/05/23 10:58:07;;;;;;;4.13;3.57;;;;;;;;;;12844786;23;20025;-84
2023/05/23 11:03:12;;;;;;;9.07;5.50;;;;;;;;;;12840664;23;20024;-86
2023/05/23 11:13:59;;;;;;;6.07;4.53;;;;;;;;;;12943304;22;20020;-88
2023/05/23 11:19:24;;;;;;;5.53;3.63;;;;;;;;;;12906294;23;20744;-88
2023/05/23 11:24:53;;;;;;;3.55;3.25;;;;;;;;;;12911920;23;20116;-88
2023/05/23 11:30:02;;;;;;;4.78;2.80;;;;;;;;;;12905033;23;20086;-88
2023/05/23 11:35:09;;;;;;;3.83;3.15;;;;;;;;;;12968793;22;20098;-92
2023/05/23 11:40:30;;;;;;;2.97;2.60;;;;;;;;;;12974368;22;20102;-87
2023/05/23 11:45:35;;;;;;;2.70;2.25;;;;;;;;;;12912620;23;20031;-89
2023/05/23 11:50:48;;;;;;;4.47;2.15;;;;;;;;;;12950490;22;20525;-87
2023/05/23 11:55:53;;;;;;;4.22;3.78;;;;;;;;;;12948541;22;20405;-92
2023/05/23 12:01:00;;;;;;;4.35;3.78;;;;;;;;;;12949147;22;20039;-87
2023/05/23 12:06:06;;;;;;;7.10;4.85;;;;;;;;;;12975594;22;20019;-93
2023/05/23 12:11:11;;;;;;;4.88;3.88;;;;;;;;;;12966841;22;20463;-89
2023/05/23 12:16:15;;;;;;;4.07;3.15;;;;;;;;;;12947608;22;20478;-91
2023/05/23 12:21:20;;;;;;;3.17;2.88;;;;;;;;;;12947518;22;20077;-87
2023/05/23 12:26:23;;;;;;;5.95;4.40;;;;;;;;;;12974228;22;20024;-91
2023/05/23 12:31:27;;;;;;;6.78;5.75;;;;;;;;;;12945228;22;20554;-88
2023/05/23 12:36:34;;;;;;;4.75;3.88;;;;;;;;;;12974284;22;20023;-87
2023/05/23 12:41:43;;;;;;;9.48;5.72;;;;;;;;;;12947253;22;20694;-87
2023/05/23 12:46:47;;;;;;;5.70;5.10;;;;;;;;;;12946243;22;20083;-89
2023/05/23 12:51:52;;;;;;;5.72;4.85;;;;;;;;;;12946394;22;20656;-87
2023/05/23 12:56:55;;;;;;;4.60;4.05;;;;;;;;;;12973028;22;20023;-91
2023/05/23 13:02:00;;;;;;;10.57;6.97;;;;;;;;;;12973129;22;20026;-87
2023/05/23 13:07:05;;;;;;;9.80;6.70;;;;;;;;;;12973268;22;20027;-89
2023/05/23 13:12:09;;;;;;;6.63;5.70;;;;;;;;;;12946381;22;20078;-88
2023/05/23 13:17:12;;;;;;;6.95;4.43;;;;;;;;;;12946016;22;20031;-91
2023/05/23 13:22:17;;;;;;;9.07;4.75;;;;;;;;;;12945433;22;20554;-89
2023/05/23 13:27:21;;;;;;;7.80;6.28;;;;;;;;;;12946706;22;20050;-88
2023/05/23 13:32:24;;;;;;;7.07;5.78;;;;;;;;;;12944346;22;20526;-88
2023/05/23 13:37:29;;;;;;;6.32;4.93;;;;;;;;;;12947258;22;20043;-88
2023/05/23 13:42:33;;;;;;;7.35;4.13;;;;;;;;;;12975495;22;20024;-88
2023/05/23 13:47:36;;;;;;;6.78;4.78;;;;;;;;;;12977365;22;20050;-90
2023/05/23 13:52:41;;;;;;;7.03;5.03;;;;;;;;;;12948926;22;20030;-87
2023/05/23 13:57:46;;;;;;;7.22;4.95;;;;;;;;;;12950130;22;20020;-88
2023/05/23 14:02:50;;;;;;;9.95;6.38;;;;;;;;;;12946907;22;20027;-88
2023/05/23 14:07:55;;;;;;;6.93;5.22;;;;;;;;;;12986364;22;20402;-91
2023/05/23 14:12:58;;;;;;;12.88;7.55;;;;;;;;;;12948223;22;20496;-88
2023/05/23 14:18:02;;;;;;;9.18;7.03;;;;;;;;;;12975081;22;20399;-87
2023/05/23 14:23:07;;;;;;;8.35;6.00;;;;;;;;;;12947235;22;20027;-88
2023/05/23 14:28:10;;;;;;;10.65;7.00;;;;;;;;;;12973485;22;20459;-89
2023/05/23 14:33:14;;;;;;;7.28;5.47;;;;;;;;;;12948017;22;20023;-88
2023/05/23 14:38:21;;;;;;;7.22;5.82;;;;;;;;;;12974697;22;20020;-91
2023/05/23 14:43:25;;;;;;;6.40;4.75;;;;;;;;;;12941604;22;20024;-89
2023/05/23 14:48:28;;;;;;;7.55;4.68;;;;;;;;;;12972096;22;20578;-88
2023/05/23 14:53:33;;;;;;;7.55;5.45;;;;;;;;;;12900540;22;20744;-88
2023/05/23 14:58:39;;;;;;;6.25;4.55;;;;;;;;;;12920329;22;20029;-90
2023/05/23 15:03:42;;;;;;;8.63;5.20;;;;;;;;;;12967778;22;20466;-88
2023/05/23 15:08:47;;;;;;;5.93;4.63;;;;;;;;;;12944009;22;20026;-90
2023/05/23 15:13:50;;;;;;;4.00;3.60;;;;;;;;;;12971958;22;20043;-88
2023/05/23 15:18:54;;;;;;;5.50;3.83;;;;;;;;;;12944088;22;20030;-88
2023/05/23 15:23:59;;;;;;;11.80;6.32;;;;;;;;;;12972557;22;20089;-89
2023/05/23 15:29:02;;;;;;;8.07;5.82;;;;;;;;;;12946551;22;20024;-87
2023/05/23 15:34:06;;;;;;;6.70;4.85;;;;;;;;;;12946481;22;20027;-87
2023/05/23 15:39:11;;;;;;;8.45;5.13;;;;;;;;;;12973670;22;20023;-91
2023/05/23 15:44:19;;;;;;;4.47;3.20;;;;;;;;;;12947324;22;20089;-88
2023/05/23 15:49:23;;;;;;;5.32;3.30;;;;;;;;;;12972269;22;20265;-88
2023/05/23 15:54:30;;;;;;;2.65;2.20;;;;;;;;;;12898326;23;20487;-88
2023/05/23 15:59:34;;;;;;;2.65;1.77;;;;;;;;;;12906547;23;20027;-90
2023/05/23 16:04:38;;;;;;;1.95;1.45;;;;;;;;;;12909118;23;20410;-87
2023/05/23 16:09:43;;;;;;;2.72;1.50;;;;;;;;;;12965522;22;20471;-88
2023/05/23 16:14:47;;;;;;;2.72;1.48;;;;;;;;;;12973984;22;20059;-89
2023/05/23 16:19:50;;;;;;;6.65;3.40;;;;;;;;;;12950036;22;20070;-89
2023/05/23 16:24:55;;;;;;;4.57;2.33;;;;;;;;;;12978000;22;20028;-88
2023/05/23 16:29:58;;;;;;;1.98;1.60;;;;;;;;;;12976794;22;20085;-89
2023/05/23 16:35:02;;;;;;;1.90;1.33;;;;;;;;;;12952203;22;20459;-88
2023/05/23 16:40:08;;;;;;;2.30;1.45;;;;;;;;;;12975851;22;20024;-91
2023/05/23 16:45:13;;;;;;;2.92;1.83;;;;;;;;;;12975586;22;20024;-88
2023/05/23 16:50:17;;;;;;;3.08;1.70;;;;;;;;;;12950526;22;20019;-88
2023/05/23 16:55:23;;;;;;;1.52;1.40;;;;;;;;;;12949744;22;20034;-90
2023/05/23 17:00:27;;;;;;;2.75;1.50;;;;;;;;;;12950864;22;20024;-88
2023/05/23 17:05:34;;;;;;;2.88;1.42;;;;;;;;;;12952949;22;20506;-88
2023/05/23 17:11:11;;;;;;;2.88;1.48;;;;;;;;;;12964174;22;20019;-88
2023/05/23 17:16:17;;;;;;;2.38;1.65;;;;;;;;;;12952374;22;20204;-87
2023/05/23 17:21:22;;;;;;;1.85;1.48;;;;;;;;;;12956674;22;20027;-88
2023/05/23 17:26:28;;;;;;;1.70;1.20;;;;;;;;;;12981995;22;20026;-91
2023/05/23 17:31:31;;;;;;;2.40;1.30;;;;;;;;;;12978308;22;20038;-88
2023/05/23 17:36:35;;;;;;;4.53;1.55;;;;;;;;;;12951454;22;20024;-89
2023/05/23 17:41:41;;;;;;;4.35;2.22;;;;;;;;;;12980258;22;20023;-88
2023/05/23 17:46:45;;;;;;;2.92;1.25;;;;;;;;;;12953310;22;20031;-87
2023/05/23 17:51:49;;;;;;;1.63;1.30;;;;;;;;;;12980028;22;20031;-89
2023/05/23 17:56:55;;;;;;;2.42;1.42;;;;;;;;;;12980304;22;20497;-89
2023/05/23 18:01:59;;;;;;;1.97;1.17;;;;;;;;;;12978687;22;20019;-91
2023/05/23 18:07:02;;;;;;;2.80;1.70;;;;;;;;;;12978457;22;20489;-87
2023/05/23 18:12:08;;;;;;;1.67;1.30;;;;;;;;;;12994616;22;20027;-87
2023/05/23 18:17:11;;;;;;;2.37;1.70;;;;;;;;;;12978400;22;20028;-89
2023/05/23 18:22:15;;;;;;;3.05;1.60;;;;;;;;;;12949235;22;20046;-87
2023/05/23 18:27:32;;;;;;;3.28;1.60;;;;;;;;;;12948165;22;20032;-88
2023/05/23 18:32:39;;;;;;;3.33;1.85;;;;;;;;;;12978993;22;20020;-87
2023/05/23 18:37:58;;;;;;;3.30;1.55;;;;;;;;;;12955778;22;20026;-88
2023/05/23 18:43:12;;;;;;;1.75;1.15;;;;;;;;;;12968587;22;20459;-85
2023/05/23 18:48:15;;;;;;;3.83;1.70;;;;;;;;;;12967824;22;20607;-91
2023/05/23 18:53:19;;;;;;;2.65;1.52;;;;;;;;;;12953056;22;20019;-88
2023/05/23 18:58:26;;;;;;;2.38;1.38;;;;;;;;;;12946884;22;20027;-90
2023/05/23 19:03:32;;;;;;;2.67;1.58;;;;;;;;;;12974312;22;20471;-87
2023/05/23 19:08:35;;;;;;;3.23;1.40;;;;;;;;;;12948297;22;20023;-87
2023/05/23 19:13:40;;;;;;;2.97;1.20;;;;;;;;;;12945841;22;20359;-90
2023/05/23 19:18:44;;;;;;;2.47;1.35;;;;;;;;;;12973395;22;20073;-87
2023/05/23 19:23:48;;;;;;;3.33;1.50;;;;;;;;;;12974418;22;20031;-90
2023/05/23 19:28:53;;;;;;;2.65;1.20;;;;;;;;;;12947096;22;20078;-88
2023/05/23 19:33:57;;;;;;;2.60;1.50;;;;;;;;;;12947140;22;20030;-87
2023/05/23 19:39:00;;;;;;;1.83;1.10;;;;;;;;;;12946955;22;20024;-90
2023/05/23 19:44:05;;;;;;;1.95;1.63;;;;;;;;;;12946500;22;20020;-87
2023/05/23 19:49:09;;;;;;;3.50;1.30;;;;;;;;;;12973596;22;20455;-87
2023/05/23 19:54:13;;;;;;;2.05;1.25;;;;;;;;;;12973017;22;20032;-87
2023/05/23 19:59:18;;;;;;;3.03;1.60;;;;;;;;;;12945801;22;20019;-87
2023/05/23 20:04:23;;;;;;;2.22;1.50;;;;;;;;;;12944814;22;20028;-86
2023/05/23 20:09:27;;;;;;;3.13;1.60;;;;;;;;;;12947859;22;20023;-87
2023/05/23 20:14:32;;;;;;;2.38;1.50;;;;;;;;;;12947980;22;20490;-85
2023/05/23 20:19:36;;;;;;;3.07;1.30;;;;;;;;;;12975766;22;20057;-86
2023/05/23 20:24:39;;;;;;;3.08;1.75;;;;;;;;;;12947507;22;20728;-87
2023/05/23 20:29:44;;;;;;;3.72;1.67;;;;;;;;;;12976068;22;20062;-85
2023/05/23 20:34:48;;;;;;;5.18;1.90;;;;;;;;;;12961660;22;20625;-88
2023/05/23 20:39:51;;;;;;;3.33;2.00;;;;;;;;;;12946030;22;20025;-85
2023/05/23 20:44:56;;;;;;;5.63;1.90;;;;;;;;;;12973753;22;20058;-90
2023/05/23 20:50:00;;;;;;;4.18;1.90;;;;;;;;;;12947827;22;20403;-86
2023/05/23 20:55:04;;;;;;;4.47;1.80;;;;;;;;;;12972969;22;20027;-86
2023/05/23 21:00:11;;;;;;;4.80;2.00;;;;;;;;;;12946721;22;20043;-90
2023/05/23 21:05:15;;;;;;;3.17;1.48;;;;;;;;;;12946208;22;20023;-85
2023/05/23 21:10:19;;;;;;;3.33;1.42;;;;;;;;;;12968846;22;20030;-91
2023/05/23 21:15:23;;;;;;;4.20;1.60;;;;;;;;;;12974061;22;20039;-87
2023/05/23 21:20:27;;;;;;;3.17;1.48;;;;;;;;;;12974063;22;20035;-86
2023/05/23 21:25:31;;;;;;;5.30;1.60;;;;;;;;;;12971004;22;20099;-87
2023/05/23 21:30:36;;;;;;;2.38;1.55;;;;;;;;;;12943388;22;20031;-86
2023/05/23 21:35:39;;;;;;;3.38;1.77;;;;;;;;;;12991678;22;20024;-91
2023/05/23 21:40:43;;;;;;;5.13;1.73;;;;;;;;;;12943118;22;20043;-89
2023/05/23 21:45:48;;;;;;;4.43;1.70;;;;;;;;;;12944672;22;20027;-86
2023/05/23 21:50:51;;;;;;;4.13;1.60;;;;;;;;;;12995430;22;20046;-91
2023/05/23 21:55:54;;;;;;;3.85;1.67;;;;;;;;;;12948960;22;20098;-86
2023/05/23 22:00:59;;;;;;;3.40;1.60;;;;;;;;;;12947949;22;20151;-89
2023/05/23 22:06:02;;;;;;;4.10;1.30;;;;;;;;;;12947340;22;20011;-87
2023/05/23 22:11:09;;;;;;;2.97;1.60;;;;;;;;;;12992380;22;20042;-86
2023/05/23 22:16:14;;;;;;;3.45;1.50;;;;;;;;;;12992920;22;20019;-86
2023/05/23 22:21:17;;;;;;;2.47;1.42;;;;;;;;;;12991575;22;20031;-88
2023/05/23 22:26:22;;;;;;;4.68;1.63;;;;;;;;;;12946467;22;20015;-86
2023/05/23 22:31:30;;;;;;;4.07;1.65;;;;;;;;;;12971644;22;20038;-86
2023/05/23 22:36:33;;;;;;;6.28;2.70;;;;;;;;;;12972958;22;20027;-86
2023/05/23 22:41:37;;;;;;;3.38;2.05;;;;;;;;;;12974977;22;20636;-86
2023/05/23 22:46:42;;;;;;;3.97;1.80;;;;;;;;;;12957780;22;20019;-86
2023/05/23 22:51:46;;;;;;;3.78;1.23;;;;;;;;;;12947137;22;20035;-87
2023/05/23 22:56:54;;;;;;;3.70;1.67;;;;;;;;;;12973892;22;20024;-84
2023/05/23 23:01:59;;;;;;;4.97;1.50;;;;;;;;;;12938196;22;20023;-84
2023/05/23 23:07:02;;;;;;;4.25;1.30;;;;;;;;;;12921305;22;20032;-85
2023/05/23 23:12:06;;;;;;;2.95;1.67;;;;;;;;;;12865042;23;20363;-85
2023/05/23 23:17:12;;;;;;;2.28;1.45;;;;;;;;;;12882189;23;20363;-86
2023/05/23 23:22:16;;;;;;;2.20;1.42;;;;;;;;;;12884548;23;20028;-85
2023/05/23 23:27:21;;;;;;;2.70;1.42;;;;;;;;;;12911737;23;20032;-85
2023/05/23 23:32:26;;;;;;;3.80;1.85;;;;;;;;;;12912863;23;20344;-85
2023/05/23 23:37:29;;;;;;;3.50;1.70;;;;;;;;;;12889536;23;20024;-85
2023/05/23 23:42:32;;;;;;;3.15;1.95;;;;;;;;;;12914181;23;20236;-85
2023/05/23 23:47:37;;;;;;;3.10;1.65;;;;;;;;;;12914190;23;20024;-85
2023/05/23 23:52:40;;;;;;;2.75;1.63;;;;;;;;;;12910863;23;20020;-85
2023/05/23 23:57:43;;;;;;;2.97;2.03;;;;;;;;;;12881644;23;20447;-84
